Terminal Aerodrome Forecast
Issued by NWS

Home | Current Version | Previous Version | Text Only | Print | Product List | Glossary On
Versions: 1 2 3 4 5 6 7 8 9 10 11 12 13 14 15 16 17 18 19 20 21 22 23 24 25 26 27 28 29 30
000
FTUS45 KBOU 252110 AAD
TAFAPA
TAF AMD
KAPA 252110Z 2521/2618 08013KT P6SM BKN070 BKN110
     FM252130 35015G22KT P6SM VCSH SCT050 BKN070 BKN100
      TEMPO 2522/2601 -SHRA BKN050
     FM260100 03018G28KT 4SM -SHRA BKN030 OVC050
      TEMPO 2602/2604 1SM -SN BKN015 OVC028
     FM260400 03013KT P6SM SCT030 BKN150
     FM261100 VRB06KT P6SM VCFG FEW001 SCT200
     FM261600 09009KT P6SM SCT070=

USA.gov is the U.S. government's official web portal to all federal, state and local government web resources and services.